La Suprema — IBIL — position and weather

sailwx.info

Track history (hours):
 
Tides and Currents Weather Stations Pressure Air Temp Water Temp Dewpoint Dewpoint Depression Visibility Wind Speed Wind Dir Waves Ship Positions

La Suprema

Last reported at 2016-Jun-27 21:20 UTC. Time now 2016-Jun-28 09:53 UTC.
Position N 38°39' E 013°03'.

Length 211 m; draft 7.5 m.

Type: Passenger vessel. MMSI: 247083700.

Date/timePositionNaut miles runAvg speedWind from/ knotsBaromVisibWave heightAir tempDewpointWater temp
2016-Jun-27 21:20N 38°39' E 013°03'1721.8
2016-Jun-27 20:33N 38°26' E 013°17'1919.5
2016-Jun-27 19:33N 38°07' E 013°24'2 1.5
2016-Jun-27 18:33N 38°08' E 013°22'0 0.0
2016-Jun-27 17:32N 38°08' E 013°22'0 0.0
2016-Jun-27 16:32N 38°08' E 013°22'0 0.0
2016-Jun-27 15:31N 38°08' E 013°22'0 0.0
2016-Jun-27 14:31N 38°08' E 013°22'5 5.0
2016-Jun-27 13:33N 38°12' E 013°24'2323.2
2016-Jun-27 12:33N 38°32' E 013°09'30423.1
2016-Jun-26 23:23N 42°52' E 009°41'1922.8
2016-Jun-26 22:33N 43°10' E 009°34'2222.3
2016-Jun-26 21:34N 43°31' E 009°23'2222.2
2016-Jun-26 20:34N 43°52' E 009°13'2222.4
2016-Jun-26 19:33N 44°13' E 009°02'1311.4
2016-Jun-26 18:27N 44°25' E 008°55'0 0.0
2016-Jun-26 17:32N 44°25' E 008°55'0 0.0
2016-Jun-26 16:29N 44°25' E 008°55'0 0.0
2016-Jun-26 15:31N 44°25' E 008°55'2 1.7
2016-Jun-26 14:34N 44°23' E 008°57'2020.5
2016-Jun-26 13:33N 44°04' E 009°07'2322.8
2016-Jun-26 12:33N 43°43' E 009°18'2322.8
2016-Jun-26 11:33N 43°21' E 009°28'2722.4
2016-Jun-26 10:20N 42°55' E 009°40'29822.5
2016-Jun-25 21:05N 38°40' E 013°02'1222.0
2016-Jun-25 20:33N 38°30' E 013°11'2222.1
2016-Jun-25 19:34N 38°12' E 013°26'5 4.5
2016-Jun-25 18:32N 38°08' E 013°22'0 0.0
2016-Jun-25 17:32N 38°08' E 013°22'0 0.0
2016-Jun-25 16:28N 38°08' E 013°22'0 0.0
2016-Jun-25 15:31N 38°08' E 013°22'0 0.3
2016-Jun-25 14:33N 38°08' E 013°22'1717.2
2016-Jun-25 13:34N 38°24' E 013°15'19524.4
2016-Jun-25 05:33N 41°09' E 010°60'11422.7
2016-Jun-25 00:32N 42°48' E 009°44'2222.8
2016-Jun-24 23:33N 43°09' E 009°32'2222.4
2016-Jun-24 22:33N 43°29' E 009°20'2222.4
2016-Jun-24 21:33N 43°49' E 009°05'2322.6
2016-Jun-24 20:33N 44°12' E 009°01'1413.5
2016-Jun-24 19:33N 44°25' E 008°55'0 0.0
2016-Jun-24 18:29N 44°25' E 008°55'0 0.0
2016-Jun-24 17:32N 44°25' E 008°55'0 0.0
2016-Jun-24 16:32N 44°25' E 008°55'0 0.0
2016-Jun-24 15:33N 44°25' E 008°55'1212.1
2016-Jun-24 14:33N 44°13' E 009°02'2323.0
2016-Jun-24 13:33N 43°52' E 009°14'2323.0
2016-Jun-24 12:33N 43°30' E 009°24'2322.6
2016-Jun-24 11:33N 43°09' E 009°35'2422.6
2016-Jun-24 10:30N 42°47' E 009°45'29322.5
2016-Jun-23 21:28N 38°36' E 013°06'2022.0
2016-Jun-23 20:33N 38°20' E 013°21'1211.9
2016-Jun-23 19:33N 38°08' E 013°22'0 0.0
2016-Jun-23 18:33N 38°08' E 013°22'0 0.0
2016-Jun-23 17:32N 38°08' E 013°22'0 0.0
2016-Jun-23 16:32N 38°08' E 013°22'0 0.0
2016-Jun-23 15:31N 38°08' E 013°22'0 0.2
2016-Jun-23 14:33N 38°08' E 013°22'1514.8
2016-Jun-23 13:33N 38°22' E 013°17'26123.2
2016-Jun-23 02:17N 42°03' E 010°14'1823.1
2016-Jun-23 01:29N 42°18' E 010°01'2523.2
2016-Jun-23 00:26N 42°41' E 009°48'2023.0
2016-Jun-22 23:33N 42°60' E 009°38'2322.7
2016-Jun-22 22:34N 43°21' E 009°28'2323.2
2016-Jun-22 21:34N 43°43' E 009°17'2322.8
2016-Jun-22 20:33N 44°04' E 009°05'2120.7
2016-Jun-22 19:33N 44°24' E 008°56'1 0.9
2016-Jun-22 18:32N 44°25' E 008°55'0 0.0
2016-Jun-22 17:28N 44°25' E 008°55'0 0.0
2016-Jun-22 16:31N 44°25' E 008°55'0 0.0
2016-Jun-22 15:33N 44°25' E 008°55'9 8.7
2016-Jun-22 14:33N 44°17' E 009°01'2322.8
2016-Jun-22 13:34N 43°56' E 009°12'2323.0
2016-Jun-22 12:33N 43°34' E 009°23'2222.4
2016-Jun-22 11:34N 43°13' E 009°33'5322.6
2016-Jun-22 09:13N 42°23' E 009°58'26522.5
2016-Jun-21 21:28N 38°39' E 013°03'2022.5
2016-Jun-21 20:34N 38°22' E 013°18'1514.7
2016-Jun-21 19:34N 38°08' E 013°22'0 0.1
2016-Jun-21 18:30N 38°08' E 013°22'0 0.0
2016-Jun-21 17:29N 38°08' E 013°22'0 0.0
2016-Jun-21 16:32N 38°08' E 013°22'0 0.0
2016-Jun-21 15:31N 38°08' E 013°22'0 0.5
2016-Jun-21 14:33N 38°08' E 013°22'1717.1
2016-Jun-21 13:34N 38°24' E 013°15'26423.2
2016-Jun-21 02:10N 42°07' E 010°10'3923.1
2016-Jun-21 00:28N 42°43' E 009°48'2122.8
2016-Jun-20 23:33N 43°02' E 009°38'2322.9
2016-Jun-20 22:34N 43°23' E 009°27'2322.5
2016-Jun-20 21:34N 43°45' E 009°16'2322.5
2016-Jun-20 20:33N 44°06' E 009°05'1919.4
2016-Jun-20 19:33N 44°24' E 008°56'1 0.8
2016-Jun-20 18:28N 44°25' E 008°55'0 0.0
2016-Jun-20 17:34N 44°25' E 008°55'0 0.0
2016-Jun-20 16:27N 44°25' E 008°55'0 0.0
2016-Jun-20 15:33N 44°25' E 008°55'0 0.0
2016-Jun-20 14:32N 44°25' E 008°55'0 0.0
2016-Jun-20 13:32N 44°25' E 008°55'0 0.0
2016-Jun-20 12:31N 44°25' E 008°55'0 0.0
2016-Jun-20 11:31N 44°25' E 008°55'0 0.0
2016-Jun-20 10:30N 44°25' E 008°55'0 0.0
2016-Jun-20 09:30N 44°25' E 008°55'0 0.0
2016-Jun-20 08:33N 44°25' E 008°55'0 0.0
2016-Jun-20 07:29N 44°25' E 008°55'0 0.0
2016-Jun-20 06:32N 44°25' E 008°55'0 0.0
2016-Jun-20 05:28N 44°25' E 008°55'0 0.0
2016-Jun-20 04:28N 44°25' E 008°55'0 0.0
2016-Jun-20 03:33N 44°25' E 008°55'0 0.0
2016-Jun-20 02:33N 44°25' E 008°55'0 0.0
2016-Jun-20 01:33N 44°25' E 008°55'0 0.0
2016-Jun-20 00:32N 44°25' E 008°55'0 0.0
2016-Jun-19 23:32N 44°25' E 008°55'0 0.0
2016-Jun-19 22:31N 44°25' E 008°55'0 0.0
2016-Jun-19 21:31N 44°25' E 008°55'0 0.0
2016-Jun-19 20:30N 44°25' E 008°55'0 0.0
2016-Jun-19 19:33N 44°25' E 008°55'0 0.0
2016-Jun-19 18:33N 44°25' E 008°55'1 1.3
2016-Jun-19 17:33N 44°24' E 008°56'2019.5
2016-Jun-19 16:33N 44°06' E 009°08'2222.4
2016-Jun-19 15:33N 43°45' E 009°18'2322.7
2016-Jun-19 14:34N 43°23' E 009°28'33322.2
2016-Jun-18 23:32N 38°34' E 013°07'2222.2
2016-Jun-18 22:34N 38°16' E 013°22'8 8.3
2016-Jun-18 21:32N 38°08' E 013°22'0 0.0
2016-Jun-18 20:32N 38°08' E 013°22'0 0.0
2016-Jun-18 19:32N 38°08' E 013°22'0 0.0
2016-Jun-18 18:31N 38°08' E 013°22'0 0.0
2016-Jun-18 17:31N 38°08' E 013°22'2 1.6
2016-Jun-18 16:34N 38°08' E 013°24'2120.4
2016-Jun-18 15:32N 38°27' E 013°13'29722.9
2016-Jun-18 02:34N 42°40' E 009°48'2922.5
2016-Jun-18 01:17N 43°07' E 009°34'1622.5
2016-Jun-18 00:33N 43°22' E 009°28'2222.2
2016-Jun-17 23:33N 43°43' E 009°17'2222.2
2016-Jun-17 22:33N 44°04' E 009°05'2120.8
2016-Jun-17 21:33N 44°23' E 008°56'  
Track history (hours):
 
Tides and Currents Weather Stations Pressure Air Temp Water Temp Dewpoint Dewpoint Depression Visibility Wind Speed Wind Dir Waves Ship Positions

La Suprema

Last reported at 2016-Jun-27 21:20 UTC. Time now 2016-Jun-28 09:53 UTC.
Position N 38°39' E 013°03'.

Length 211 m; draft 7.5 m.

Type: Passenger vessel. MMSI: 247083700.

Date/timePositionNaut miles runAvg speedWind from/ knotsBaromVisibWave heightAir tempDewpointWater temp
2016-Jun-27 21:20N 38°39' E 013°03'1721.8
2016-Jun-27 20:33N 38°26' E 013°17'1919.5
2016-Jun-27 19:33N 38°07' E 013°24'2 1.5
2016-Jun-27 18:33N 38°08' E 013°22'0 0.0
2016-Jun-27 17:32N 38°08' E 013°22'0 0.0
2016-Jun-27 16:32N 38°08' E 013°22'0 0.0
2016-Jun-27 15:31N 38°08' E 013°22'0 0.0
2016-Jun-27 14:31N 38°08' E 013°22'5 5.0
2016-Jun-27 13:33N 38°12' E 013°24'2323.2
2016-Jun-27 12:33N 38°32' E 013°09'30423.1
2016-Jun-26 23:23N 42°52' E 009°41'1922.8
2016-Jun-26 22:33N 43°10' E 009°34'2222.3
2016-Jun-26 21:34N 43°31' E 009°23'2222.2
2016-Jun-26 20:34N 43°52' E 009°13'2222.4
2016-Jun-26 19:33N 44°13' E 009°02'1311.4
2016-Jun-26 18:27N 44°25' E 008°55'0 0.0
2016-Jun-26 17:32N 44°25' E 008°55'0 0.0
2016-Jun-26 16:29N 44°25' E 008°55'0 0.0
2016-Jun-26 15:31N 44°25' E 008°55'2 1.7
2016-Jun-26 14:34N 44°23' E 008°57'2020.5
2016-Jun-26 13:33N 44°04' E 009°07'2322.8
2016-Jun-26 12:33N 43°43' E 009°18'2322.8
2016-Jun-26 11:33N 43°21' E 009°28'2722.4
2016-Jun-26 10:20N 42°55' E 009°40'29822.5
2016-Jun-25 21:05N 38°40' E 013°02'1222.0
2016-Jun-25 20:33N 38°30' E 013°11'2222.1
2016-Jun-25 19:34N 38°12' E 013°26'5 4.5
2016-Jun-25 18:32N 38°08' E 013°22'0 0.0
2016-Jun-25 17:32N 38°08' E 013°22'0 0.0
2016-Jun-25 16:28N 38°08' E 013°22'0 0.0
2016-Jun-25 15:31N 38°08' E 013°22'0 0.3
2016-Jun-25 14:33N 38°08' E 013°22'1717.2
2016-Jun-25 13:34N 38°24' E 013°15'19524.4
2016-Jun-25 05:33N 41°09' E 010°60'11422.7
2016-Jun-25 00:32N 42°48' E 009°44'2222.8
2016-Jun-24 23:33N 43°09' E 009°32'2222.4
2016-Jun-24 22:33N 43°29' E 009°20'2222.4
2016-Jun-24 21:33N 43°49' E 009°05'2322.6
2016-Jun-24 20:33N 44°12' E 009°01'1413.5
2016-Jun-24 19:33N 44°25' E 008°55'0 0.0
2016-Jun-24 18:29N 44°25' E 008°55'0 0.0
2016-Jun-24 17:32N 44°25' E 008°55'0 0.0
2016-Jun-24 16:32N 44°25' E 008°55'0 0.0
2016-Jun-24 15:33N 44°25' E 008°55'1212.1
2016-Jun-24 14:33N 44°13' E 009°02'2323.0
2016-Jun-24 13:33N 43°52' E 009°14'2323.0
2016-Jun-24 12:33N 43°30' E 009°24'2322.6
2016-Jun-24 11:33N 43°09' E 009°35'2422.6
2016-Jun-24 10:30N 42°47' E 009°45'29322.5
2016-Jun-23 21:28N 38°36' E 013°06'2022.0
2016-Jun-23 20:33N 38°20' E 013°21'1211.9
2016-Jun-23 19:33N 38°08' E 013°22'0 0.0
2016-Jun-23 18:33N 38°08' E 013°22'0 0.0
2016-Jun-23 17:32N 38°08' E 013°22'0 0.0
2016-Jun-23 16:32N 38°08' E 013°22'0 0.0
2016-Jun-23 15:31N 38°08' E 013°22'0 0.2
2016-Jun-23 14:33N 38°08' E 013°22'1514.8
2016-Jun-23 13:33N 38°22' E 013°17'26123.2
2016-Jun-23 02:17N 42°03' E 010°14'1823.1
2016-Jun-23 01:29N 42°18' E 010°01'2523.2
2016-Jun-23 00:26N 42°41' E 009°48'2023.0
2016-Jun-22 23:33N 42°60' E 009°38'2322.7
2016-Jun-22 22:34N 43°21' E 009°28'2323.2
2016-Jun-22 21:34N 43°43' E 009°17'2322.8
2016-Jun-22 20:33N 44°04' E 009°05'2120.7
2016-Jun-22 19:33N 44°24' E 008°56'1 0.9
2016-Jun-22 18:32N 44°25' E 008°55'0 0.0
2016-Jun-22 17:28N 44°25' E 008°55'0 0.0
2016-Jun-22 16:31N 44°25' E 008°55'0 0.0
2016-Jun-22 15:33N 44°25' E 008°55'9 8.7
2016-Jun-22 14:33N 44°17' E 009°01'2322.8
2016-Jun-22 13:34N 43°56' E 009°12'2323.0
2016-Jun-22 12:33N 43°34' E 009°23'2222.4
2016-Jun-22 11:34N 43°13' E 009°33'5322.6
2016-Jun-22 09:13N 42°23' E 009°58'26522.5
2016-Jun-21 21:28N 38°39' E 013°03'2022.5
2016-Jun-21 20:34N 38°22' E 013°18'1514.7
2016-Jun-21 19:34N 38°08' E 013°22'0 0.1
2016-Jun-21 18:30N 38°08' E 013°22'0 0.0
2016-Jun-21 17:29N 38°08' E 013°22'0 0.0
2016-Jun-21 16:32N 38°08' E 013°22'0 0.0
2016-Jun-21 15:31N 38°08' E 013°22'0 0.5
2016-Jun-21 14:33N 38°08' E 013°22'1717.1
2016-Jun-21 13:34N 38°24' E 013°15'26423.2
2016-Jun-21 02:10N 42°07' E 010°10'3923.1
2016-Jun-21 00:28N 42°43' E 009°48'2122.8
2016-Jun-20 23:33N 43°02' E 009°38'2322.9
2016-Jun-20 22:34N 43°23' E 009°27'2322.5
2016-Jun-20 21:34N 43°45' E 009°16'2322.5
2016-Jun-20 20:33N 44°06' E 009°05'1919.4
2016-Jun-20 19:33N 44°24' E 008°56'1 0.8
2016-Jun-20 18:28N 44°25' E 008°55'0 0.0
2016-Jun-20 17:34N 44°25' E 008°55'0 0.0
2016-Jun-20 16:27N 44°25' E 008°55'0 0.0
2016-Jun-20 15:33N 44°25' E 008°55'0 0.0
2016-Jun-20 14:32N 44°25' E 008°55'0 0.0
2016-Jun-20 13:32N 44°25' E 008°55'0 0.0
2016-Jun-20 12:31N 44°25' E 008°55'0 0.0
2016-Jun-20 11:31N 44°25' E 008°55'0 0.0
2016-Jun-20 10:30N 44°25' E 008°55'0 0.0
2016-Jun-20 09:30N 44°25' E 008°55'0 0.0
2016-Jun-20 08:33N 44°25' E 008°55'0 0.0
2016-Jun-20 07:29N 44°25' E 008°55'0 0.0
2016-Jun-20 06:32N 44°25' E 008°55'0 0.0
2016-Jun-20 05:28N 44°25' E 008°55'0 0.0
2016-Jun-20 04:28N 44°25' E 008°55'0 0.0
2016-Jun-20 03:33N 44°25' E 008°55'0 0.0
2016-Jun-20 02:33N 44°25' E 008°55'0 0.0
2016-Jun-20 01:33N 44°25' E 008°55'0 0.0
2016-Jun-20 00:32N 44°25' E 008°55'0 0.0
2016-Jun-19 23:32N 44°25' E 008°55'0 0.0
2016-Jun-19 22:31N 44°25' E 008°55'0 0.0
2016-Jun-19 21:31N 44°25' E 008°55'0 0.0
2016-Jun-19 20:30N 44°25' E 008°55'0 0.0
2016-Jun-19 19:33N 44°25' E 008°55'0 0.0
2016-Jun-19 18:33N 44°25' E 008°55'1 1.3
2016-Jun-19 17:33N 44°24' E 008°56'2019.5
2016-Jun-19 16:33N 44°06' E 009°08'2222.4
2016-Jun-19 15:33N 43°45' E 009°18'2322.7
2016-Jun-19 14:34N 43°23' E 009°28'33322.2
2016-Jun-18 23:32N 38°34' E 013°07'2222.2
2016-Jun-18 22:34N 38°16' E 013°22'8 8.3
2016-Jun-18 21:32N 38°08' E 013°22'0 0.0
2016-Jun-18 20:32N 38°08' E 013°22'0 0.0
2016-Jun-18 19:32N 38°08' E 013°22'0 0.0
2016-Jun-18 18:31N 38°08' E 013°22'0 0.0
2016-Jun-18 17:31N 38°08' E 013°22'2 1.6
2016-Jun-18 16:34N 38°08' E 013°24'2120.4
2016-Jun-18 15:32N 38°27' E 013°13'29722.9
2016-Jun-18 02:34N 42°40' E 009°48'2922.5
2016-Jun-18 01:17N 43°07' E 009°34'1622.5
2016-Jun-18 00:33N 43°22' E 009°28'2222.2
2016-Jun-17 23:33N 43°43' E 009°17'2222.2
2016-Jun-17 22:33N 44°04' E 009°05'2120.8
2016-Jun-17 21:33N 44°23' E 008°56'  

Dump ship's entire track history